Time;durP1;ratioP1;P1;durP2;ratioP2;P2;SDS_P1;SDS_P2;PMS_P1;PMS_P2;Temp;Humidity;BMP_temperature;BMP_pressure;BME280_temperature;BME280_humidity;BME280_pressure;Samples;Min_cycle;Max_cycle;Signal;HPM_P1;HPM_P2
2023/05/18 00:00:31;;;;;;;3.35;1.90;;;28.80;99.90;;;;;;4908427;29;20215;-95
2023/05/18 00:03:03;;;;;;;2.92;2.00;;;28.80;99.90;;;;;;4908239;29;20667;-93
2023/05/18 00:05:36;;;;;;;5.50;2.50;;;28.70;99.90;;;;;;4911160;29;20279;-92
2023/05/18 00:08:11;;;;;;;8.05;2.63;;;28.70;99.90;;;;;;4913291;29;20213;-95
2023/05/18 00:10:46;;;;;;;3.65;2.25;;;28.50;99.90;;;;;;4906017;29;20218;-95
2023/05/18 00:13:18;;;;;;;2.50;2.05;;;28.50;99.90;;;;;;4914302;29;20292;-96
2023/05/18 00:15:49;;;;;;;7.70;2.38;;;28.40;99.90;;;;;;4904679;29;20304;-92
2023/05/18 00:18:22;;;;;;;2.78;1.83;;;28.40;99.90;;;;;;4901321;29;20293;-94
2023/05/18 00:20:59;;;;;;;6.07;2.15;;;28.40;99.90;;;;;;4912233;29;20257;-92
2023/05/18 00:23:31;;;;;;;4.55;1.90;;;28.50;99.90;;;;;;4920923;29;20209;-92
2023/05/18 00:26:03;;;;;;;5.78;1.90;;;28.40;99.90;;;;;;4923019;29;20300;-91
2023/05/18 00:28:34;;;;;;;3.30;1.80;;;28.40;99.90;;;;;;4920416;29;20213;-93
2023/05/18 00:31:06;;;;;;;4.45;2.10;;;28.30;99.90;;;;;;4912787;29;20240;-92
2023/05/18 00:33:37;;;;;;;3.28;2.03;;;28.30;99.90;;;;;;4902148;29;20210;-92
2023/05/18 00:36:10;;;;;;;3.35;1.95;;;28.40;99.90;;;;;;4912571;29;20668;-93
2023/05/18 00:38:40;;;;;;;2.72;2.20;;;28.40;99.90;;;;;;4918621;29;20213;-91
2023/05/18 00:41:12;;;;;;;4.47;2.40;;;28.10;99.90;;;;;;4918710;29;20209;-92
2023/05/18 00:43:43;;;;;;;3.70;2.20;;;28.10;99.90;;;;;;4918884;29;20216;-92
2023/05/18 00:46:14;;;;;;;6.07;2.08;;;28.10;99.90;;;;;;4907652;29;20237;-92
2023/05/18 00:48:45;;;;;;;4.47;2.20;;;27.80;99.90;;;;;;4914611;29;20241;-91
2023/05/18 00:51:18;;;;;;;3.88;2.10;;;27.30;99.90;;;;;;4918261;29;20593;-91
2023/05/18 00:53:49;;;;;;;6.47;2.30;;;27.30;99.90;;;;;;4905486;29;20213;-92
2023/05/18 00:56:22;;;;;;;3.77;2.27;;;27.30;99.90;;;;;;4903824;29;20212;-92
2023/05/18 00:58:56;;;;;;;2.93;2.00;;;27.50;99.90;;;;;;4915784;29;20209;-92
2023/05/18 01:01:29;;;;;;;7.03;2.20;;;27.80;99.90;;;;;;4923372;29;20212;-91
2023/05/18 01:04:01;;;;;;;4.82;2.13;;;28.00;99.90;;;;;;4919538;29;20204;-92
2023/05/18 01:06:36;;;;;;;5.63;2.20;;;28.20;99.90;;;;;;4906637;29;20338;-93
2023/05/18 01:09:10;;;;;;;2.28;1.80;;;28.10;99.90;;;;;;4920623;29;20205;-92
2023/05/18 01:12:01;;;;;;;4.70;1.90;;;28.20;99.90;;;;;;4907669;29;20217;-92
2023/05/18 01:14:35;;;;;;;2.90;1.77;;;28.20;99.90;;;;;;4926847;29;20236;-91
2023/05/18 01:17:14;;;;;;;2.72;1.95;;;28.60;99.90;;;;;;4936275;29;20217;-93
2023/05/18 01:20:14;;;;;;;5.53;2.00;;;28.70;99.90;;;;;;4916543;29;20201;-92
2023/05/18 01:23:19;;;;;;;3.47;2.03;;;28.70;99.90;;;;;;4904290;29;20348;-92
2023/05/18 01:26:07;;;;;;;4.07;2.00;;;28.90;99.90;;;;;;4910064;29;20394;-93
2023/05/18 01:28:39;;;;;;;4.73;2.03;;;28.90;99.90;;;;;;4924232;29;20209;-93
2023/05/18 01:31:11;;;;;;;5.20;2.30;;;28.30;99.90;;;;;;4921308;29;20220;-92
2023/05/18 01:33:43;;;;;;;5.30;2.15;;;28.40;99.90;;;;;;4920769;29;20213;-93
2023/05/18 01:36:14;;;;;;;4.90;2.27;;;28.40;99.90;;;;;;4908376;29;20208;-93
2023/05/18 01:38:46;;;;;;;5.87;2.47;;;28.60;99.90;;;;;;4920539;29;20205;-93
2023/05/18 01:41:24;;;;;;;5.13;2.30;;;28.50;99.90;;;;;;4920289;29;20221;-92
2023/05/18 01:44:01;;;;;;;2.87;2.10;;;28.30;99.90;;;;;;4917342;29;20557;-92
2023/05/18 01:46:47;;;;;;;3.70;2.47;;;28.10;99.90;;;;;;4901590;29;20715;-93
2023/05/18 01:49:26;;;;;;;4.22;2.05;;;27.80;99.90;;;;;;4900831;29;20296;-93
2023/05/18 01:51:59;;;;;;;4.60;2.42;;;27.40;99.90;;;;;;4905679;29;20291;-93
2023/05/18 01:54:33;;;;;;;7.10;2.43;;;27.00;99.90;;;;;;4918344;29;20287;-94
2023/05/18 01:57:12;;;;;;;3.27;2.10;;;26.70;99.90;;;;;;4902693;29;20214;-94
2023/05/18 01:59:43;;;;;;;4.37;2.10;;;26.50;99.90;;;;;;4911308;29;20237;-95
2023/05/18 02:02:14;;;;;;;5.23;2.10;;;26.40;99.90;;;;;;4919253;29;20213;-93
2023/05/18 02:04:45;;;;;;;2.63;1.90;;;26.20;99.90;;;;;;4921638;29;20212;-95
2023/05/18 02:07:17;;;;;;;3.87;2.13;;;25.80;99.90;;;;;;4921185;29;20239;-96
2023/05/18 02:09:49;;;;;;;3.50;2.37;;;25.70;99.90;;;;;;4900863;29;20205;-94
2023/05/18 02:12:22;;;;;;;3.13;1.87;;;25.50;99.90;;;;;;4902123;29;20288;-94
2023/05/18 02:14:54;;;;;;;3.50;2.20;;;25.40;99.90;;;;;;4909310;29;20269;-94
2023/05/18 02:17:26;;;;;;;4.80;2.10;;;25.30;99.90;;;;;;4920859;29;20300;-95
2023/05/18 02:19:57;;;;;;;3.90;2.10;;;25.30;99.90;;;;;;4901160;29;20224;-94
2023/05/18 02:22:28;;;;;;;5.50;2.13;;;25.00;99.90;;;;;;4917665;29;20216;-95
2023/05/18 02:25:00;;;;;;;6.00;2.40;;;25.00;99.90;;;;;;4920310;29;20217;-96
2023/05/18 02:27:34;;;;;;;4.67;2.20;;;24.90;99.90;;;;;;4920197;29;20233;-94
2023/05/18 02:30:08;;;;;;;3.90;2.13;;;24.80;99.90;;;;;;4918705;29;20217;-94
2023/05/18 02:32:41;;;;;;;3.80;2.17;;;24.70;99.90;;;;;;4904267;29;20218;-94
2023/05/18 02:35:13;;;;;;;4.77;2.13;;;24.60;99.90;;;;;;4916384;29;20193;-91
2023/05/18 02:37:46;;;;;;;5.77;2.40;;;24.50;99.90;;;;;;4938615;29;20212;-94
2023/05/18 02:40:17;;;;;;;3.67;1.90;;;24.40;99.90;;;;;;4940370;29;20233;-95
2023/05/18 02:42:51;;;;;;;4.37;2.37;;;24.20;99.90;;;;;;4921903;29;20216;-94
2023/05/18 02:45:24;;;;;;;4.00;2.00;;;24.20;99.90;;;;;;4920403;29;20300;-93
2023/05/18 02:47:55;;;;;;;3.77;2.40;;;24.10;99.90;;;;;;4918295;29;20221;-94
2023/05/18 02:50:26;;;;;;;4.77;2.30;;;24.00;99.90;;;;;;4921173;29;20217;-93
2023/05/18 02:52:58;;;;;;;5.37;2.20;;;23.90;99.90;;;;;;4917664;29;20213;-93
2023/05/18 02:55:29;;;;;;;3.90;2.40;;;23.80;99.90;;;;;;4927236;29;20218;-92
2023/05/18 02:58:02;;;;;;;4.60;2.17;;;23.80;99.90;;;;;;4918807;29;20219;-93
2023/05/18 03:00:34;;;;;;;8.80;2.30;;;23.80;99.90;;;;;;4920728;29;20216;-93
2023/05/18 03:03:09;;;;;;;4.77;2.37;;;23.60;99.90;;;;;;4915231;29;20658;-93
2023/05/18 03:05:42;;;;;;;3.97;2.43;;;23.50;99.90;;;;;;4906320;29;20213;-93
2023/05/18 03:08:14;;;;;;;4.73;2.20;;;23.40;99.90;;;;;;4920784;29;20244;-94
2023/05/18 03:10:45;;;;;;;9.90;2.60;;;23.30;99.90;;;;;;4922408;29;20205;-95
2023/05/18 03:13:19;;;;;;;4.97;2.10;;;23.30;99.90;;;;;;4921258;29;20208;-94
2023/05/18 03:15:51;;;;;;;3.83;2.10;;;23.10;99.90;;;;;;4918939;29;20213;-93
2023/05/18 03:18:23;;;;;;;4.33;2.57;;;23.00;99.90;;;;;;4919697;29;20217;-94
2023/05/18 03:21:00;;;;;;;4.33;2.10;;;22.90;99.90;;;;;;4921706;29;20232;-94
2023/05/18 03:23:31;;;;;;;5.57;2.53;;;22.80;99.90;;;;;;4935821;29;20211;-93
2023/05/18 03:26:09;;;;;;;5.80;2.70;;;22.70;99.90;;;;;;4914675;29;20214;-94
2023/05/18 03:28:44;;;;;;;4.93;2.80;;;22.60;99.90;;;;;;4899035;29;20256;-95
2023/05/18 03:31:15;;;;;;;4.20;2.23;;;22.50;99.90;;;;;;4902701;29;20722;-94
2023/05/18 03:33:47;;;;;;;3.63;2.17;;;22.40;99.90;;;;;;4900470;29;20214;-94
2023/05/18 03:36:21;;;;;;;5.37;2.60;;;22.30;99.90;;;;;;4900636;29;20655;-94
2023/05/18 03:38:52;;;;;;;4.30;2.17;;;22.20;99.90;;;;;;4911174;29;20980;-94
2023/05/18 03:41:24;;;;;;;2.87;2.13;;;22.10;99.90;;;;;;4904907;29;20222;-93
2023/05/18 03:43:58;;;;;;;4.40;2.37;;;22.00;99.90;;;;;;4900276;29;20309;-94
2023/05/18 03:46:29;;;;;;;6.73;2.20;;;22.00;99.90;;;;;;4901772;29;20647;-93
2023/05/18 03:49:02;;;;;;;5.90;2.33;;;21.80;99.90;;;;;;4898925;29;20245;-93
2023/05/18 03:51:34;;;;;;;4.90;2.43;;;21.70;99.90;;;;;;4917012;29;20529;-94
2023/05/18 03:54:06;;;;;;;7.40;2.60;;;21.60;99.90;;;;;;4933062;29;20212;-93
2023/05/18 03:56:38;;;;;;;5.67;2.90;;;21.50;99.90;;;;;;4916068;29;20219;-94
2023/05/18 03:59:11;;;;;;;2.67;2.47;;;21.40;99.90;;;;;;4917633;29;20639;-94
2023/05/18 04:01:43;;;;;;;6.17;2.40;;;21.40;99.90;;;;;;4917927;29;20204;-93
2023/05/18 04:04:16;;;;;;;5.27;2.57;;;21.30;99.90;;;;;;4918278;29;20224;-94
2023/05/18 04:06:50;;;;;;;3.10;2.77;;;21.30;99.90;;;;;;4919001;29;20224;-93
2023/05/18 04:09:22;;;;;;;4.27;2.50;;;21.20;99.90;;;;;;4921658;29;20327;-96
2023/05/18 04:11:54;;;;;;;3.87;2.47;;;21.10;99.90;;;;;;4921173;29;20216;-92
2023/05/18 04:14:31;;;;;;;4.27;2.70;;;21.10;99.90;;;;;;4915595;29;20273;-91
2023/05/18 04:17:05;;;;;;;9.70;3.13;;;21.00;99.90;;;;;;4915181;29;20209;-91
2023/05/18 04:19:37;;;;;;;4.47;2.77;;;21.00;99.90;;;;;;4907088;29;20628;-91
2023/05/18 04:22:09;;;;;;;9.03;3.63;;;20.90;99.90;;;;;;4899728;29;20242;-91
2023/05/18 04:24:41;;;;;;;8.13;2.90;;;20.80;99.90;;;;;;4905632;29;20217;-91
2023/05/18 04:27:12;;;;;;;4.57;2.47;;;20.80;99.90;;;;;;4927778;29;20209;-93
2023/05/18 04:29:48;;;;;;;9.30;2.50;;;20.80;99.90;;;;;;4910059;29;20237;-92
2023/05/18 04:32:19;;;;;;;4.40;2.50;;;20.70;99.90;;;;;;4916676;29;20218;-92
2023/05/18 04:34:51;;;;;;;4.23;2.63;;;20.70;99.90;;;;;;4920581;29;20217;-92
2023/05/18 04:37:22;;;;;;;4.97;2.40;;;20.60;99.90;;;;;;4904409;29;20217;-91
2023/05/18 04:39:54;;;;;;;6.67;2.50;;;20.60;99.90;;;;;;4916505;29;20208;-92
2023/05/18 04:42:26;;;;;;;3.50;2.37;;;20.50;99.90;;;;;;4899574;29;20671;-93
2023/05/18 04:45:00;;;;;;;4.13;2.67;;;20.50;99.90;;;;;;4899340;29;20223;-92
2023/05/18 04:47:32;;;;;;;3.87;2.70;;;20.40;99.90;;;;;;4906906;29;20213;-92
2023/05/18 04:50:04;;;;;;;4.00;2.30;;;20.40;99.90;;;;;;4910564;29;20241;-92
2023/05/18 04:52:36;;;;;;;2.90;2.60;;;20.30;99.90;;;;;;4943682;28;20259;-93
2023/05/18 04:55:09;;;;;;;5.13;2.77;;;20.30;99.90;;;;;;4934591;29;20220;-91
2023/05/18 04:57:41;;;;;;;3.07;2.40;;;20.20;99.90;;;;;;4912201;29;20221;-92
2023/05/18 05:00:16;;;;;;;3.57;2.57;;;20.20;99.90;;;;;;4913645;29;20325;-92
2023/05/18 05:02:48;;;;;;;6.30;2.87;;;20.10;99.90;;;;;;4918583;29;20800;-92
2023/05/18 05:05:20;;;;;;;6.93;2.53;;;20.00;99.90;;;;;;4915218;29;20205;-92
2023/05/18 05:07:52;;;;;;;5.70;2.77;;;20.00;99.90;;;;;;4899240;29;20213;-92
2023/05/18 05:10:24;;;;;;;4.73;2.53;;;19.90;99.90;;;;;;4911275;29;20660;-91
2023/05/18 05:12:56;;;;;;;3.70;2.30;;;19.90;99.90;;;;;;4910557;29;20233;-92
2023/05/18 05:15:31;;;;;;;5.03;2.50;;;19.80;99.90;;;;;;4924002;29;20248;-92
2023/05/18 05:18:03;;;;;;;5.23;2.50;;;19.70;99.90;;;;;;4922970;29;20215;-92
2023/05/18 05:20:35;;;;;;;4.13;2.77;;;19.80;99.90;;;;;;4927021;29;20209;-92
2023/05/18 05:23:06;;;;;;;6.47;5.47;;;19.80;99.90;;;;;;4928316;29;20285;-91
2023/05/18 05:25:39;;;;;;;4.13;3.73;;;19.70;99.90;;;;;;4928300;29;20208;-91
2023/05/18 05:28:10;;;;;;;3.60;2.57;;;19.80;99.90;;;;;;4909975;29;20212;-91
2023/05/18 05:30:43;;;;;;;4.20;2.40;;;19.70;99.90;;;;;;4917047;29;20205;-91
2023/05/18 05:33:15;;;;;;;3.50;2.73;;;19.60;99.90;;;;;;4916378;29;20287;-90
2023/05/18 05:35:46;;;;;;;5.93;2.70;;;19.70;99.90;;;;;;4917455;29;20628;-91
2023/05/18 05:38:19;;;;;;;3.97;2.87;;;19.60;99.90;;;;;;4922711;29;20674;-92
2023/05/18 05:40:51;;;;;;;5.30;2.63;;;19.60;99.90;;;;;;4918448;29;20216;-91
2023/05/18 05:43:22;;;;;;;5.50;2.30;;;19.50;99.90;;;;;;4914815;29;20221;-90
2023/05/18 05:45:56;;;;;;;3.80;2.67;;;19.40;99.90;;;;;;4901952;29;20218;-91
2023/05/18 05:48:28;;;;;;;6.23;3.20;;;19.40;99.90;;;;;;4922677;29;20647;-91
2023/05/18 05:51:00;;;;;;;6.57;2.80;;;19.40;99.90;;;;;;4918348;29;20288;-92
2023/05/18 05:53:32;;;;;;;8.03;2.83;;;19.40;99.90;;;;;;4902832;29;20269;-92
2023/05/18 05:56:06;;;;;;;4.80;2.60;;;19.30;99.90;;;;;;4916615;29;20213;-91
2023/05/18 05:58:38;;;;;;;5.47;2.77;;;19.30;99.90;;;;;;4913849;29;20219;-91
2023/05/18 06:01:14;;;;;;;4.60;2.47;;;19.30;99.90;;;;;;4919318;29;20205;-92
2023/05/18 06:03:45;;;;;;;4.10;2.77;;;19.30;99.90;;;;;;4913712;29;20298;-90
2023/05/18 06:06:17;;;;;;;6.53;3.03;;;19.20;99.90;;;;;;4920592;29;20250;-92
2023/05/18 06:08:49;;;;;;;6.37;3.00;;;19.20;99.90;;;;;;4920154;29;20908;-91
2023/05/18 06:11:21;;;;;;;6.93;2.57;;;19.20;99.90;;;;;;4925750;29;20268;-90
2023/05/18 06:13:53;;;;;;;3.80;2.57;;;19.10;99.90;;;;;;4914797;29;20696;-91
2023/05/18 06:16:27;;;;;;;3.13;2.60;;;19.10;99.90;;;;;;4914128;29;20296;-91
2023/05/18 06:18:59;;;;;;;4.83;2.80;;;19.00;99.90;;;;;;4909303;29;20205;-91
2023/05/18 06:21:32;;;;;;;3.13;2.70;;;19.00;99.90;;;;;;4914246;29;20224;-92
2023/05/18 06:24:03;;;;;;;6.10;2.80;;;19.00;99.90;;;;;;4910573;29;20217;-92
2023/05/18 06:26:35;;;;;;;5.00;2.80;;;19.00;99.90;;;;;;4918235;29;20295;-91
2023/05/18 06:29:07;;;;;;;4.30;2.80;;;19.00;99.90;;;;;;4919963;29;20243;-91
2023/05/18 06:31:41;;;;;;;6.90;2.70;;;18.90;99.90;;;;;;4920612;29;20221;-91
2023/05/18 06:34:12;;;;;;;5.00;2.73;;;18.90;99.90;;;;;;4916700;29;20276;-91
2023/05/18 06:36:43;;;;;;;4.23;3.13;;;18.90;99.90;;;;;;4933363;29;20284;-92
2023/05/18 06:39:14;;;;;;;3.33;2.77;;;18.90;99.90;;;;;;4934061;29;20217;-92
2023/05/18 06:41:46;;;;;;;8.17;3.33;;;18.80;99.90;;;;;;4943559;29;20209;-90
2023/05/18 06:44:18;;;;;;;3.87;2.73;;;18.80;99.90;;;;;;4919935;29;20216;-92
2023/05/18 06:46:52;;;;;;;3.57;2.53;;;18.70;99.90;;;;;;4916565;29;20220;-91
2023/05/18 06:49:23;;;;;;;4.33;3.20;;;18.70;99.90;;;;;;4923599;29;20239;-91
2023/05/18 06:51:54;;;;;;;4.17;3.17;;;18.70;99.90;;;;;;4920498;29;20248;-91
2023/05/18 06:54:28;;;;;;;6.43;2.73;;;18.60;99.90;;;;;;4911701;29;20210;-91
2023/05/18 06:56:59;;;;;;;4.07;3.17;;;18.60;99.90;;;;;;4937758;29;20318;-90
2023/05/18 06:59:31;;;;;;;4.87;2.93;;;18.50;99.90;;;;;;4908678;28;20225;-91
2023/05/18 07:02:04;;;;;;;5.43;3.13;;;18.50;99.90;;;;;;4924889;29;20260;-93
2023/05/18 07:04:35;;;;;;;4.13;2.97;;;18.50;99.90;;;;;;4922053;29;20253;-92
2023/05/18 07:07:07;;;;;;;5.03;2.70;;;18.40;99.90;;;;;;4921022;29;20213;-91
2023/05/18 07:09:40;;;;;;;4.93;2.67;;;18.40;99.90;;;;;;4916345;29;20308;-89
2023/05/18 07:12:12;;;;;;;4.50;2.73;;;18.30;99.90;;;;;;4910221;29;20212;-91
2023/05/18 07:14:44;;;;;;;4.23;3.10;;;18.30;99.90;;;;;;4919961;29;20217;-92
2023/05/18 07:17:18;;;;;;;5.03;3.20;;;18.20;99.90;;;;;;4902400;29;20217;-91
2023/05/18 07:19:49;;;;;;;4.10;3.07;;;18.10;99.90;;;;;;4908466;29;20209;-91
2023/05/18 07:22:21;;;;;;;7.80;3.63;;;18.10;99.90;;;;;;4909722;29;20224;-91
2023/05/18 07:24:53;;;;;;;5.63;3.67;;;18.10;99.90;;;;;;4919605;29;20662;-91
2023/05/18 07:27:24;;;;;;;5.67;2.90;;;18.10;99.90;;;;;;4932840;29;20217;-91
2023/05/18 07:29:55;;;;;;;3.63;2.83;;;18.00;99.90;;;;;;4918514;29;20304;-91
2023/05/18 07:32:29;;;;;;;4.50;2.90;;;18.10;99.90;;;;;;4918191;29;20300;-91
2023/05/18 07:35:02;;;;;;;4.70;3.30;;;18.00;99.90;;;;;;4917968;29;20215;-93
2023/05/18 07:37:34;;;;;;;6.13;3.30;;;18.00;99.90;;;;;;4934447;29;20238;-92
2023/05/18 07:40:08;;;;;;;5.33;3.27;;;18.00;99.90;;;;;;4927095;29;20210;-91
2023/05/18 07:42:41;;;;;;;5.13;3.23;;;18.00;99.90;;;;;;4903084;29;20213;-92
2023/05/18 07:45:14;;;;;;;6.37;3.00;;;18.00;99.90;;;;;;4918527;29;20220;-92
2023/05/18 07:47:47;;;;;;;4.93;3.23;;;18.00;99.90;;;;;;4918387;29;20228;-94
2023/05/18 07:50:19;;;;;;;6.97;3.67;;;18.00;99.90;;;;;;4917885;29;20244;-91
2023/05/18 07:52:50;;;;;;;3.90;3.13;;;18.00;99.90;;;;;;4918605;29;20348;-91
2023/05/18 07:55:22;;;;;;;6.67;3.13;;;17.90;99.90;;;;;;4913323;29;20217;-91
2023/05/18 07:57:55;;;;;;;4.93;3.40;;;17.90;99.90;;;;;;4904839;29;20236;-92
2023/05/18 08:00:26;;;;;;;5.27;3.50;;;17.80;99.90;;;;;;4916761;29;20209;-91
2023/05/18 08:03:01;;;;;;;7.70;4.63;;;17.80;99.90;;;;;;4925719;29;20217;-90
2023/05/18 08:05:32;;;;;;;5.50;4.07;;;17.80;99.90;;;;;;4911630;29;20217;-91
2023/05/18 08:08:03;;;;;;;5.53;3.50;;;17.70;99.90;;;;;;4912344;29;20213;-91
2023/05/18 08:10:36;;;;;;;5.50;3.60;;;17.70;99.90;;;;;;4917840;29;20319;-92
2023/05/18 08:13:08;;;;;;;7.17;4.00;;;17.60;99.90;;;;;;4901410;29;20376;-92
2023/05/18 08:15:41;;;;;;;6.57;3.70;;;17.60;99.90;;;;;;4913063;29;20217;-91
2023/05/18 08:18:27;;;;;;;6.67;3.87;;;17.50;99.90;;;;;;4905957;29;20216;-91
2023/05/18 08:20:59;;;;;;;8.30;4.03;;;17.40;99.90;;;;;;4927884;29;20677;-91
2023/05/18 08:23:30;;;;;;;4.67;3.50;;;17.40;99.90;;;;;;4898537;29;20686;-92
2023/05/18 08:26:02;;;;;;;6.80;3.50;;;17.30;99.90;;;;;;4916497;29;20217;-91
2023/05/18 08:28:36;;;;;;;5.07;3.53;;;17.20;99.90;;;;;;4918355;29;20215;-92
2023/05/18 08:31:08;;;;;;;4.10;3.37;;;17.20;99.90;;;;;;4918325;29;20252;-91
2023/05/18 08:33:42;;;;;;;4.90;3.10;;;17.20;99.90;;;;;;4914290;29;20240;-92
2023/05/18 08:36:14;;;;;;;3.80;3.50;;;17.20;99.90;;;;;;4918088;29;20228;-93
2023/05/18 08:38:45;;;;;;;6.23;3.37;;;17.20;99.90;;;;;;4917836;29;20205;-93
2023/05/18 08:41:24;;;;;;;7.53;3.83;;;17.20;99.90;;;;;;4917181;29;20718;-90
2023/05/18 08:44:04;;;;;;;7.20;3.53;;;17.10;99.90;;;;;;4917770;29;20221;-91
2023/05/18 08:46:36;;;;;;;6.40;3.67;;;17.10;99.90;;;;;;4918166;29;20236;-91
2023/05/18 08:49:11;;;;;;;7.50;4.03;;;17.10;99.90;;;;;;4912512;29;20216;-92
2023/05/18 08:51:46;;;;;;;4.80;3.60;;;17.10;99.90;;;;;;4918022;29;20303;-92
2023/05/18 08:54:22;;;;;;;5.70;3.70;;;17.00;99.90;;;;;;4882683;29;20241;-92
2023/05/18 08:56:54;;;;;;;5.03;3.30;;;17.00;99.90;;;;;;4899766;29;20217;-91
2023/05/18 08:59:27;;;;;;;5.10;3.80;;;17.00;99.90;;;;;;4900764;29;20225;-91
2023/05/18 09:02:00;;;;;;;9.43;4.13;;;17.00;99.90;;;;;;4918269;29;20216;-92
2023/05/18 09:04:35;;;;;;;4.87;3.40;;;16.90;99.90;;;;;;4917270;29;20216;-91
2023/05/18 09:07:08;;;;;;;4.70;3.50;;;16.90;99.90;;;;;;4906024;29;20209;-92
2023/05/18 09:09:41;;;;;;;4.60;3.67;;;16.80;99.90;;;;;;4904766;29;20300;-90
2023/05/18 09:12:14;;;;;;;8.23;3.87;;;16.80;99.90;;;;;;4927759;29;20721;-91
2023/05/18 09:14:46;;;;;;;5.20;3.63;;;16.80;99.90;;;;;;4955710;29;20275;-91
2023/05/18 09:17:18;;;;;;;5.27;3.70;;;16.70;99.90;;;;;;4949486;29;20609;-91
2023/05/18 09:19:51;;;;;;;6.80;3.90;;;16.70;99.90;;;;;;4922738;29;20209;-91
2023/05/18 09:22:23;;;;;;;8.93;4.10;;;16.70;99.90;;;;;;4927632;29;20276;-91
2023/05/18 09:24:54;;;;;;;5.60;3.40;;;16.60;99.90;;;;;;4917054;29;20240;-91
2023/05/18 09:27:25;;;;;;;5.60;3.90;;;16.60;99.90;;;;;;4915418;29;20217;-91
2023/05/18 09:29:58;;;;;;;5.13;3.47;;;16.60;99.90;;;;;;4919422;29;20319;-91
2023/05/18 09:32:35;;;;;;;5.37;3.70;;;16.60;99.90;;;;;;4921064;29;20232;-92
2023/05/18 09:35:10;;;;;;;5.73;3.60;;;16.60;99.90;;;;;;4908787;29;20216;-91
2023/05/18 09:37:44;;;;;;;7.07;3.73;;;16.60;99.90;;;;;;4920329;29;20278;-90
2023/05/18 09:40:15;;;;;;;7.50;3.83;;;16.60;99.90;;;;;;4923892;29;20313;-91
2023/05/18 09:42:54;;;;;;;6.07;3.77;;;16.60;99.90;;;;;;4927582;29;20279;-91
2023/05/18 09:48:23;;;;;;;4.33;3.47;;;16.60;99.90;;;;;;4946722;29;20228;-90
2023/05/18 09:51:15;;;;;;;5.93;3.70;;;16.70;99.90;;;;;;4922979;29;20234;-91
2023/05/18 09:53:55;;;;;;;6.93;4.20;;;16.60;99.90;;;;;;4928726;29;20217;-91
2023/05/18 09:56:28;;;;;;;8.63;3.80;;;16.60;99.90;;;;;;4915429;29;20225;-92
2023/05/18 09:59:09;;;;;;;7.80;3.37;;;16.50;99.90;;;;;;4913283;29;20236;-91
2023/05/18 10:01:59;;;;;;;5.27;3.63;;;16.40;99.90;;;;;;4933096;29;20745;-91
2023/05/18 10:04:38;;;;;;;5.63;3.60;;;16.50;99.90;;;;;;4939497;29;20252;-90
2023/05/18 10:10:19;;;;;;;6.53;3.87;;;16.50;99.90;;;;;;4925284;29;20269;-90
2023/05/18 10:12:53;;;;;;;5.13;3.50;;;16.40;99.90;;;;;;4921984;29;20236;-91
2023/05/18 10:15:34;;;;;;;14.20;4.13;;;16.40;99.90;;;;;;4928474;29;20209;-90
2023/05/18 10:18:09;;;;;;;4.67;3.47;;;16.40;99.90;;;;;;4928219;29;20209;-90
2023/05/18 10:20:42;;;;;;;6.60;3.80;;;16.40;99.90;;;;;;4909594;29;20216;-90
2023/05/18 10:23:20;;;;;;;4.00;3.50;;;16.40;99.90;;;;;;4929893;29;20208;-90
2023/05/18 10:28:42;;;;;;;4.23;3.70;;;16.30;99.90;;;;;;4920808;29;20214;-91
2023/05/18 10:31:16;;;;;;;7.00;4.43;;;16.30;99.90;;;;;;4926628;29;20244;-90
2023/05/18 10:33:51;;;;;;;7.33;4.03;;;16.30;99.90;;;;;;4930126;29;20208;-92
2023/05/18 10:36:28;;;;;;;4.50;3.50;;;16.20;99.90;;;;;;4917409;29;20218;-92
2023/05/18 10:39:03;;;;;;;6.37;3.60;;;16.20;99.90;;;;;;4900034;29;20221;-91
2023/05/18 10:41:37;;;;;;;5.27;4.07;;;16.20;99.90;;;;;;4902095;29;20219;-91
2023/05/18 10:44:09;;;;;;;7.33;3.73;;;16.10;99.90;;;;;;4911257;29;20217;-91
2023/05/18 10:46:42;;;;;;;5.90;4.30;;;16.10;99.90;;;;;;4907158;29;20593;-91
2023/05/18 10:49:16;;;;;;;6.87;4.07;;;16.10;99.90;;;;;;4900464;29;20210;-91
2023/05/18 10:51:51;;;;;;;10.37;4.37;;;16.00;99.90;;;;;;4917454;29;20323;-91
2023/05/18 10:54:24;;;;;;;5.77;4.63;;;16.00;99.90;;;;;;4929219;29;20259;-90
2023/05/18 10:56:56;;;;;;;7.37;4.10;;;15.90;99.90;;;;;;4909651;29;20300;-91
2023/05/18 10:59:28;;;;;;;5.87;3.90;;;15.90;99.90;;;;;;4931516;29;20205;-91
2023/05/18 11:02:02;;;;;;;6.13;3.83;;;15.90;99.90;;;;;;4919606;29;20240;-91
2023/05/18 11:04:33;;;;;;;7.43;4.23;;;15.90;99.90;;;;;;4918779;29;20295;-91
2023/05/18 11:07:06;;;;;;;5.00;4.23;;;15.90;99.90;;;;;;4919179;29;20241;-92
2023/05/18 11:09:42;;;;;;;5.97;4.17;;;15.80;99.90;;;;;;4919018;29;20217;-91
2023/05/18 11:12:16;;;;;;;6.13;4.00;;;15.80;99.90;;;;;;4905807;29;20710;-91
2023/05/18 11:14:52;;;;;;;7.30;4.03;;;15.80;99.90;;;;;;4910092;29;20237;-91
2023/05/18 11:17:24;;;;;;;4.27;3.80;;;15.80;99.90;;;;;;4909902;29;20217;-91
2023/05/18 11:20:14;;;;;;;6.07;3.80;;;15.80;99.90;;;;;;4927815;29;20235;-91
2023/05/18 11:22:52;;;;;;;6.77;3.43;;;15.80;99.90;;;;;;4921620;29;20227;-91
2023/05/18 11:25:43;;;;;;;8.43;4.17;;;15.80;99.90;;;;;;4927999;29;20236;-91
2023/05/18 11:28:15;;;;;;;8.60;4.10;;;15.80;99.90;;;;;;4937514;29;20203;-91
2023/05/18 11:30:53;;;;;;;4.60;3.83;;;15.70;99.90;;;;;;4939326;29;20273;-90
2023/05/18 11:33:28;;;;;;;4.63;3.77;;;15.60;99.90;;;;;;4920983;29;20233;-90
2023/05/18 11:36:06;;;;;;;4.87;3.60;;;15.60;99.90;;;;;;4919540;29;20217;-91
2023/05/18 11:38:51;;;;;;;5.37;3.90;;;15.60;99.90;;;;;;4930468;29;20294;-91
2023/05/18 11:41:37;;;;;;;6.30;3.97;;;15.60;99.90;;;;;;4904948;29;20280;-91
2023/05/18 11:44:19;;;;;;;6.13;3.97;;;15.70;99.90;;;;;;4918583;29;20260;-91
2023/05/18 11:46:56;;;;;;;5.60;3.80;;;15.60;99.90;;;;;;4904762;29;20255;-91
2023/05/18 11:49:28;;;;;;;6.40;4.00;;;15.60;99.90;;;;;;4898863;29;20658;-91
2023/05/18 11:52:04;;;;;;;8.50;3.73;;;15.60;99.90;;;;;;4937441;29;20242;-91
2023/05/18 11:54:41;;;;;;;8.27;3.77;;;15.60;99.90;;;;;;4905563;29;20215;-91
2023/05/18 11:57:16;;;;;;;6.50;4.10;;;15.60;99.90;;;;;;4921045;29;20200;-92
2023/05/18 11:59:49;;;;;;;4.37;3.97;;;15.60;99.90;;;;;;4912345;29;20208;-89
2023/05/18 12:02:25;;;;;;;3.97;3.57;;;15.60;99.90;;;;;;4921144;29;20205;-92
2023/05/18 12:04:59;;;;;;;4.87;4.30;;;15.50;99.90;;;;;;4931141;29;20220;-90
2023/05/18 12:07:32;;;;;;;7.17;4.20;;;15.50;99.90;;;;;;4940705;29;20209;-91
2023/05/18 12:10:06;;;;;;;6.70;4.47;;;15.60;99.90;;;;;;4931826;29;20301;-90
2023/05/18 12:12:40;;;;;;;4.63;4.00;;;15.50;99.90;;;;;;4923617;29;20240;-91
2023/05/18 12:15:12;;;;;;;6.23;4.47;;;15.50;99.90;;;;;;4926837;29;20676;-91
2023/05/18 12:17:49;;;;;;;4.37;3.97;;;15.50;99.90;;;;;;4916859;29;20299;-91
2023/05/18 12:20:23;;;;;;;6.40;3.87;;;15.50;99.90;;;;;;4917574;29;20216;-91
2023/05/18 12:22:56;;;;;;;7.70;4.50;;;15.50;99.90;;;;;;4918001;29;20296;-91
2023/05/18 12:25:28;;;;;;;6.50;4.17;;;15.40;99.90;;;;;;4908994;29;20214;-92
2023/05/18 12:28:03;;;;;;;6.67;3.70;;;15.40;99.90;;;;;;4910718;29;20222;-91
2023/05/18 12:30:35;;;;;;;5.90;4.27;;;15.30;99.90;;;;;;4918659;29;20224;-91
2023/05/18 12:33:07;;;;;;;5.57;3.90;;;15.30;99.90;;;;;;4908570;29;20241;-91
2023/05/18 12:35:38;;;;;;;4.40;4.00;;;15.30;99.90;;;;;;4917548;29;20213;-90
2023/05/18 12:38:10;;;;;;;5.63;4.57;;;15.30;99.90;;;;;;4908080;29;20217;-91
2023/05/18 12:40:47;;;;;;;5.43;3.93;;;15.30;99.90;;;;;;4914867;29;20291;-91
2023/05/18 12:43:21;;;;;;;6.57;5.10;;;15.30;99.90;;;;;;4912925;29;20259;-90
2023/05/18 12:45:52;;;;;;;5.10;4.60;;;15.40;99.90;;;;;;4914248;29;20217;-90
2023/05/18 12:48:25;;;;;;;5.47;4.67;;;15.40;99.90;;;;;;4907889;29;20384;-92
2023/05/18 12:50:57;;;;;;;6.73;4.30;;;15.40;99.90;;;;;;4921848;29;20211;-90
2023/05/18 12:53:28;;;;;;;7.27;4.50;;;15.40;99.90;;;;;;4921049;29;20240;-90
2023/05/18 12:56:00;;;;;;;9.03;4.57;;;15.40;99.90;;;;;;4908517;29;20220;-91
2023/05/18 12:58:33;;;;;;;5.43;4.10;;;15.40;99.90;;;;;;4921270;29;20213;-90
2023/05/18 13:01:10;;;;;;;6.13;4.50;;;15.40;99.90;;;;;;4903754;29;20225;-92
2023/05/18 13:03:42;;;;;;;6.03;4.93;;;15.50;99.90;;;;;;4906337;29;20319;-90
2023/05/18 13:06:14;;;;;;;6.67;4.30;;;15.50;99.90;;;;;;4912757;29;20682;-91
2023/05/18 13:08:49;;;;;;;7.27;4.60;;;15.50;99.90;;;;;;4925046;29;20213;-93
2023/05/18 13:11:27;;;;;;;6.80;4.80;;;15.50;99.90;;;;;;4919019;29;20205;-91
2023/05/18 13:14:05;;;;;;;7.20;5.30;;;15.60;99.90;;;;;;4903039;29;20243;-90
2023/05/18 13:16:39;;;;;;;7.03;5.67;;;15.60;99.90;;;;;;4917260;29;20209;-91
2023/05/18 13:19:11;;;;;;;6.33;4.63;;;15.60;99.90;;;;;;4931262;29;20628;-90
2023/05/18 13:21:44;;;;;;;9.40;5.37;;;15.70;99.90;;;;;;4935697;29;20213;-91
2023/05/18 13:24:16;;;;;;;9.23;5.53;;;15.70;99.90;;;;;;4935758;29;20300;-91
2023/05/18 13:26:48;;;;;;;5.63;5.07;;;15.80;99.90;;;;;;4938423;29;20273;-92
2023/05/18 13:29:21;;;;;;;7.23;5.10;;;15.80;99.90;;;;;;4938837;29;20208;-91